Time;durP1;ratioP1;P1;durP2;ratioP2;P2;SDS_P1;SDS_P2;PMS_P1;PMS_P2;Temp;Humidity;BMP_temperature;BMP_pressure;BME280_temperature;BME280_humidity;BME280_pressure;Samples;Min_cycle;Max_cycle;Signal;HPM_P1;HPM_P2
2023/06/02 00:01:02;;;;;;;7.15;2.90;;;;;;;13.51;58.67;101909.97;3619010;39;20078;-67
2023/06/02 00:03:32;;;;;;;5.72;3.00;;;;;;;13.30;59.04;101866.19;3616241;39;20050;-67
2023/06/02 00:05:59;;;;;;;8.60;3.20;;;;;;;13.52;59.64;101904.50;3618238;39;20454;-67
2023/06/02 00:08:30;;;;;;;9.90;3.13;;;;;;;13.49;59.52;101904.69;3618685;39;20039;-67
2023/06/02 00:10:56;;;;;;;7.57;3.00;;;;;;;13.53;59.60;101911.66;3618659;39;20086;-67
2023/06/02 00:13:22;;;;;;;9.65;3.20;;;;;;;13.50;59.51;101906.41;3614496;39;20061;-67
2023/06/02 00:15:48;;;;;;;7.15;3.10;;;;;;;13.50;59.60;101911.81;3616329;39;20094;-67
2023/06/02 00:18:14;;;;;;;7.70;3.10;;;;;;;13.52;59.83;101909.06;3616525;39;20054;-68
2023/06/02 00:20:41;;;;;;;10.23;3.22;;;;;;;13.52;59.51;101909.91;3614655;39;20062;-67
2023/06/02 00:23:10;;;;;;;9.85;3.60;;;;;;;13.48;59.66;101908.34;3613836;39;20413;-67
2023/06/02 00:25:36;;;;;;;11.88;3.50;;;;;;;13.46;59.83;101905.72;3616548;39;20054;-67
2023/06/02 00:28:03;;;;;;;9.15;3.28;;;;;;;13.48;59.07;101902.94;3613734;39;20044;-68
2023/06/02 00:30:28;;;;;;;8.55;3.63;;;;;;;13.50;58.97;101901.00;3614080;39;20529;-67
2023/06/02 00:32:54;;;;;;;7.68;3.65;;;;;;;13.44;58.84;101902.22;3614062;39;20055;-68
2023/06/02 00:35:20;;;;;;;6.25;3.25;;;;;;;13.43;58.79;101905.91;3610301;39;20055;-67
2023/06/02 00:37:46;;;;;;;7.93;3.17;;;;;;;13.37;58.77;101906.25;3606547;39;20127;-68
2023/06/02 00:40:13;;;;;;;7.60;3.40;;;;;;;13.34;58.77;101900.16;3607877;39;20049;-68
2023/06/02 00:42:39;;;;;;;8.80;3.25;;;;;;;13.08;58.56;101869.19;3614627;39;20422;-68
2023/06/02 00:45:06;;;;;;;8.30;3.17;;;;;;;13.24;58.81;101899.75;3608971;39;20087;-68
2023/06/02 00:47:32;;;;;;;10.57;3.63;;;;;;;13.22;58.41;101898.97;3615847;39;20051;-68
2023/06/02 00:49:59;;;;;;;13.98;4.22;;;;;;;13.17;58.43;101910.03;3617092;39;20087;-69
2023/06/02 00:52:27;;;;;;;7.97;3.40;;;;;;;13.10;58.12;101900.53;3612774;39;20385;-68
2023/06/02 00:54:53;;;;;;;10.68;3.30;;;;;;;13.15;58.42;101897.56;3614037;39;20088;-69
2023/06/02 00:57:19;;;;;;;9.65;3.25;;;;;;;12.69;58.22;101828.13;3616758;39;20055;-67
2023/06/02 00:59:47;;;;;;;11.43;3.28;;;;;;;13.09;58.22;101896.06;3615055;39;20065;-68
2023/06/02 01:02:13;;;;;;;6.78;2.90;;;;;;;13.17;58.54;101901.06;3614374;39;20046;-67
2023/06/02 01:04:41;;;;;;;7.95;3.50;;;;;;;13.19;58.10;101909.94;3617547;39;20061;-68
2023/06/02 01:07:10;;;;;;;6.78;2.92;;;;;;;13.14;57.77;101907.50;3619620;39;20369;-68
2023/06/02 01:09:36;;;;;;;10.43;3.50;;;;;;;13.15;57.81;101902.97;3615295;39;20053;-68
2023/06/02 01:12:03;;;;;;;9.68;3.25;;;;;;;13.12;57.99;101912.09;3615139;39;20050;-67
2023/06/02 01:14:28;;;;;;;10.23;3.50;;;;;;;13.07;58.03;101903.41;3615960;39;20058;-67
2023/06/02 01:16:54;;;;;;;11.82;3.30;;;;;;;13.07;58.13;101906.09;3615311;39;20154;-67
2023/06/02 01:19:21;;;;;;;12.73;3.50;;;;;;;12.96;57.48;101884.22;3616040;39;20073;-67
2023/06/02 01:21:59;;;;;;;9.23;3.85;;;;;;;13.05;57.24;101916.09;3614452;39;20047;-67
2023/06/02 01:24:37;;;;;;;9.50;3.17;;;;;;;13.05;57.42;101916.09;3617111;39;20054;-67
2023/06/02 01:27:14;;;;;;;8.23;3.20;;;;;;;13.05;57.06;101910.69;3616256;39;20058;-67
2023/06/02 01:29:40;;;;;;;11.95;3.40;;;;;;;12.96;56.40;101911.19;3615746;39;20050;-67
2023/06/02 01:32:23;;;;;;;9.43;3.47;;;;;;;12.92;56.57;101920.44;3617762;39;20042;-68
2023/06/02 01:35:02;;;;;;;10.32;3.80;;;;;;;12.88;56.64;101911.63;3614775;39;20077;-68
2023/06/02 01:37:32;;;;;;;11.23;3.33;;;;;;;12.86;56.12;101915.38;3613339;39;20086;-68
2023/06/02 01:40:03;;;;;;;12.23;3.63;;;;;;;12.85;57.04;101910.94;3617432;39;20472;-68
2023/06/02 01:42:32;;;;;;;6.82;3.38;;;;;;;12.86;56.67;101915.38;3616129;39;20051;-68
2023/06/02 01:45:01;;;;;;;11.73;3.60;;;;;;;12.62;56.25;101874.38;3613788;39;20382;-67
2023/06/02 01:47:27;;;;;;;14.45;3.58;;;;;;;12.78;56.77;101911.25;3618365;39;20467;-68
2023/06/02 01:49:52;;;;;;;10.98;3.72;;;;;;;12.38;56.94;101841.50;3613489;39;20051;-68
2023/06/02 01:52:18;;;;;;;10.90;3.50;;;;;;;12.82;56.82;101903.00;3615145;39;20290;-68
2023/06/02 01:54:44;;;;;;;10.75;3.50;;;;;;;12.82;56.92;101903.88;3614687;39;20063;-68
2023/06/02 01:57:10;;;;;;;11.15;3.58;;;;;;;12.84;56.89;101901.06;3620564;39;20296;-69
2023/06/02 01:59:36;;;;;;;7.97;3.55;;;;;;;12.84;57.35;101895.66;3616517;39;20369;-68
2023/06/02 02:02:02;;;;;;;9.40;3.60;;;;;;;12.74;57.40;101879.97;3617793;39;20055;-67
2023/06/02 02:04:29;;;;;;;12.45;3.38;;;;;;;12.87;56.65;101909.00;3615664;39;20062;-67
2023/06/02 02:06:55;;;;;;;9.93;3.25;;;;;;;12.87;57.22;101898.22;3614630;39;20058;-67
2023/06/02 02:09:21;;;;;;;9.27;3.03;;;;;;;12.81;57.14;101902.09;3604220;39;20046;-68
2023/06/02 02:11:47;;;;;;;12.65;3.80;;;;;;;12.84;57.55;101906.47;3615499;39;20058;-68
2023/06/02 02:14:13;;;;;;;7.85;3.28;;;;;;;12.83;56.43;101905.59;3616084;39;20057;-68
2023/06/02 02:16:44;;;;;;;6.85;3.05;;;;;;;12.74;57.88;101885.38;3615181;39;20130;-68
2023/06/02 02:19:12;;;;;;;10.00;3.70;;;;;;;12.89;57.27;101902.56;3614186;39;20054;-67
2023/06/02 02:21:38;;;;;;;10.02;3.00;;;;;;;12.88;57.34;101902.66;3613897;39;20055;-67
2023/06/02 02:24:05;;;;;;;8.32;3.00;;;;;;;12.43;57.20;101834.03;3613649;39;20050;-66
2023/06/02 02:26:30;;;;;;;10.60;3.38;;;;;;;12.86;56.94;101908.13;3605087;39;20051;-67
2023/06/02 02:28:56;;;;;;;13.55;3.40;;;;;;;12.85;56.93;101902.84;3615081;39;20046;-67
2023/06/02 02:31:22;;;;;;;10.50;3.30;;;;;;;12.87;57.23;101900.91;3615748;39;20428;-68
2023/06/02 02:33:48;;;;;;;9.60;3.97;;;;;;;12.87;57.57;101899.06;3612201;39;20050;-68
2023/06/02 02:36:16;;;;;;;7.45;2.80;;;;;;;12.91;57.85;101897.09;3615749;39;20062;-67
2023/06/02 02:38:42;;;;;;;14.82;3.92;;;;;;;12.95;57.76;101898.66;3613026;39;20047;-68
2023/06/02 02:41:07;;;;;;;13.95;3.85;;;;;;;12.94;57.44;101900.50;3614120;39;20090;-67
2023/06/02 02:43:33;;;;;;;8.90;3.10;;;;;;;12.92;56.96;101896.13;3614742;39;20054;-67
2023/06/02 02:45:58;;;;;;;11.70;3.42;;;;;;;12.94;58.03;101895.09;3613110;39;20042;-67
2023/06/02 02:48:24;;;;;;;11.80;3.95;;;;;;;12.97;57.08;101888.66;3612830;39;20402;-68
2023/06/02 02:50:50;;;;;;;12.25;3.35;;;;;;;12.96;56.97;101884.22;3604757;39;20123;-68
2023/06/02 02:53:16;;;;;;;12.27;3.70;;;;;;;12.98;57.19;101887.72;3614982;39;20070;-67
2023/06/02 02:55:44;;;;;;;15.07;3.55;;;;;;;12.95;58.22;101882.47;3616190;39;20062;-68
2023/06/02 02:58:10;;;;;;;8.85;3.30;;;;;;;12.95;57.76;101890.56;3613690;39;20832;-69
2023/06/02 03:00:35;;;;;;;9.75;3.45;;;;;;;12.95;57.68;101885.19;3612591;39;20073;-69
2023/06/02 03:03:01;;;;;;;11.40;3.35;;;;;;;12.95;58.36;101904.94;3613165;39;20043;-66
2023/06/02 03:05:27;;;;;;;12.05;3.60;;;;;;;12.96;58.30;101893.19;3615137;39;20057;-67
2023/06/02 03:07:54;;;;;;;10.02;3.30;;;;;;;12.95;58.29;101883.34;3616488;39;20057;-67
2023/06/02 03:10:20;;;;;;;12.68;3.72;;;;;;;12.98;58.71;101883.19;3614060;39;20043;-67
2023/06/02 03:12:45;;;;;;;10.55;3.35;;;;;;;12.96;58.88;101897.72;3617409;39;20408;-67
2023/06/02 03:15:11;;;;;;;12.15;3.80;;;;;;;12.91;58.66;101891.72;3617247;39;20054;-67
2023/06/02 03:17:37;;;;;;;8.93;3.95;;;;;;;12.89;58.81;101899.00;3613997;39;20482;-67
2023/06/02 03:20:08;;;;;;;10.30;3.50;;;;;;;12.87;58.71;101898.22;3613684;39;20051;-68
2023/06/02 03:22:35;;;;;;;8.75;3.92;;;;;;;12.90;59.34;101898.03;3612227;39;20043;-67
2023/06/02 03:25:00;;;;;;;13.35;4.03;;;;;;;12.92;58.96;101893.44;3612816;39;20086;-67
2023/06/02 03:27:27;;;;;;;10.90;3.75;;;;;;;12.94;59.44;101897.81;3604492;39;20046;-67
2023/06/02 03:29:53;;;;;;;11.45;3.90;;;;;;;12.91;59.20;101902.50;3615434;39;20382;-67
2023/06/02 03:32:18;;;;;;;10.90;3.88;;;;;;;12.88;58.29;101902.66;3613817;39;20057;-67
2023/06/02 03:34:44;;;;;;;11.10;4.22;;;;;;;12.57;58.75;101861.16;3614271;39;20046;-67
2023/06/02 03:37:11;;;;;;;12.05;4.05;;;;;;;12.86;59.45;101905.44;3614591;39;20076;-67
2023/06/02 03:39:38;;;;;;;9.70;3.67;;;;;;;12.85;58.46;101903.69;3612200;39;20084;-68
2023/06/02 03:42:04;;;;;;;10.35;3.53;;;;;;;12.85;59.11;101914.50;3605177;39;20078;-67
2023/06/02 03:44:29;;;;;;;10.40;3.70;;;;;;;12.85;58.70;101913.63;3615032;39;20062;-68
2023/06/02 03:46:55;;;;;;;13.98;3.70;;;;;;;12.77;57.65;101901.41;3613376;39;20109;-68
2023/06/02 03:49:21;;;;;;;7.47;3.17;;;;;;;12.80;57.24;101910.28;3614856;39;20759;-66
2023/06/02 03:51:47;;;;;;;10.15;3.22;;;;;;;12.86;56.92;101918.06;3615045;39;20051;-67
2023/06/02 03:54:13;;;;;;;11.50;3.10;;;;;;;12.81;57.18;101920.13;3614374;39;20051;-68
2023/06/02 03:56:38;;;;;;;11.25;4.00;;;;;;;12.81;57.39;101928.22;3619479;39;20309;-68
2023/06/02 03:59:04;;;;;;;11.70;3.28;;;;;;;12.50;57.21;101875.91;3619696;39;20049;-68
2023/06/02 04:01:31;;;;;;;13.43;3.67;;;;;;;12.73;57.37;101921.41;3615835;39;20078;-64
2023/06/02 04:03:56;;;;;;;13.25;3.50;;;;;;;12.70;57.79;101921.56;3615501;39;20108;-65
2023/06/02 04:06:22;;;;;;;9.02;3.42;;;;;;;12.72;57.11;101926.91;3617126;39;20051;-64
2023/06/02 04:08:48;;;;;;;11.40;3.85;;;;;;;12.70;58.41;101929.66;3614167;39;20356;-64
2023/06/02 04:11:13;;;;;;;14.45;3.30;;;;;;;12.68;58.12;101928.88;3615194;39;20050;-64
2023/06/02 04:13:39;;;;;;;11.63;3.40;;;;;;;12.67;58.01;101929.81;3618393;39;20105;-64
2023/06/02 04:16:05;;;;;;;11.93;3.47;;;;;;;12.48;57.55;101888.59;3615619;39;20078;-66
2023/06/02 04:18:35;;;;;;;12.63;3.60;;;;;;;12.68;58.03;101923.47;3606668;39;20385;-65
2023/06/02 04:21:01;;;;;;;12.05;3.83;;;;;;;12.69;57.82;101925.25;3617938;39;20061;-64
2023/06/02 04:23:26;;;;;;;11.32;3.30;;;;;;;12.62;57.09;101921.09;3616937;39;20047;-65
2023/06/02 04:25:52;;;;;;;8.13;2.92;;;;;;;12.63;57.42;101930.94;3619620;39;20055;-63
2023/06/02 04:28:19;;;;;;;12.10;3.72;;;;;;;12.61;57.42;101932.84;3617004;39;20102;-64
2023/06/02 04:30:46;;;;;;;11.32;3.72;;;;;;;12.58;57.67;101924.91;3616192;39;20055;-64
2023/06/02 04:33:12;;;;;;;7.80;3.60;;;;;;;12.59;57.13;101921.28;3608171;39;20058;-63
2023/06/02 04:35:38;;;;;;;9.40;3.33;;;;;;;12.58;57.06;101921.34;3615951;39;20058;-64
2023/06/02 04:38:04;;;;;;;8.90;3.05;;;;;;;12.58;56.66;101921.34;3615476;39;20054;-64
2023/06/02 04:40:30;;;;;;;9.27;3.17;;;;;;;12.57;56.44;101925.00;3616974;39;20051;-64
2023/06/02 04:42:55;;;;;;;12.00;3.40;;;;;;;12.54;56.84;101926.91;3620683;39;20101;-63
2023/06/02 04:45:21;;;;;;;10.13;3.60;;;;;;;12.53;57.31;101929.69;3618184;39;20058;-64
2023/06/02 04:47:47;;;;;;;10.68;3.40;;;;;;;12.48;57.13;101927.22;3615516;39;20050;-64
2023/06/02 04:50:14;;;;;;;11.32;3.30;;;;;;;12.46;56.67;101928.25;3613769;39;20098;-64
2023/06/02 04:52:42;;;;;;;9.35;3.47;;;;;;;12.41;57.20;101930.34;3615170;39;20060;-64
2023/06/02 04:55:10;;;;;;;9.20;3.30;;;;;;;12.33;57.36;101911.84;3618184;39;20042;-65
2023/06/02 04:57:37;;;;;;;11.93;3.15;;;;;;;12.43;57.28;101933.81;3616581;39;20323;-64
2023/06/02 05:00:08;;;;;;;8.20;3.15;;;;;;;12.46;57.56;101931.84;3618591;39;20055;-64
2023/06/02 05:02:35;;;;;;;8.63;3.25;;;;;;;12.51;57.83;101937.84;3615111;39;20062;-64
2023/06/02 05:05:02;;;;;;;9.45;3.13;;;;;;;12.55;57.55;101946.66;3621655;39;20106;-65
2023/06/02 05:07:28;;;;;;;8.77;3.10;;;;;;;12.46;56.72;101944.44;3615001;39;20385;-64
2023/06/02 05:09:54;;;;;;;8.98;2.80;;;;;;;12.48;56.44;101946.09;3608737;39;20043;-64
2023/06/02 05:12:20;;;;;;;6.75;2.83;;;;;;;12.50;57.26;101941.50;3616699;39;20079;-65
2023/06/02 05:14:46;;;;;;;10.32;2.90;;;;;;;12.53;57.02;101951.28;3616585;39;20275;-63
2023/06/02 05:17:14;;;;;;;12.90;3.17;;;;;;;12.55;56.60;101949.34;3617006;39;20078;-65
2023/06/02 05:19:42;;;;;;;14.13;3.20;;;;;;;12.59;57.14;101955.47;3617066;39;20058;-63
2023/06/02 05:22:08;;;;;;;6.63;2.90;;;;;;;12.54;56.60;101948.50;3617075;39;20103;-65
2023/06/02 05:24:33;;;;;;;9.05;3.17;;;;;;;12.55;56.05;101949.34;3617146;39;20062;-64
2023/06/02 05:26:59;;;;;;;11.43;2.85;;;;;;;12.54;57.02;101959.28;3611152;39;20151;-64
2023/06/02 05:29:25;;;;;;;6.22;2.60;;;;;;;12.56;56.92;101961.91;3616554;39;20054;-65
2023/06/02 05:31:50;;;;;;;11.77;2.70;;;;;;;12.53;56.93;101951.28;3608138;39;20312;-65
2023/06/02 05:34:16;;;;;;;6.55;2.70;;;;;;;12.58;56.33;101954.59;3617012;39;20073;-65
2023/06/02 05:36:41;;;;;;;9.30;3.03;;;;;;;12.59;56.53;101955.47;3613145;39;20058;-65
2023/06/02 05:39:07;;;;;;;6.65;2.90;;;;;;;12.60;56.56;101951.81;3617010;39;20057;-64
2023/06/02 05:41:33;;;;;;;10.45;2.80;;;;;;;12.51;55.71;101951.34;3617060;39;20141;-65
2023/06/02 05:43:59;;;;;;;9.23;2.70;;;;;;;12.25;56.48;101911.38;3617419;39;20144;-64
2023/06/02 05:46:24;;;;;;;11.88;3.20;;;;;;;12.55;57.30;101950.22;3615985;39;20047;-65
2023/06/02 05:48:50;;;;;;;9.82;3.50;;;;;;;12.56;56.66;101951.13;3617021;39;20065;-65
2023/06/02 05:51:16;;;;;;;11.80;3.92;;;;;;;12.61;56.22;101954.44;3618123;39;20046;-64
2023/06/02 05:53:41;;;;;;;12.85;4.28;;;;;;;12.64;56.22;101959.66;3614530;39;20066;-64
2023/06/02 05:56:07;;;;;;;13.10;3.15;;;;;;;12.55;55.99;101938.56;3617743;39;20062;-65
2023/06/02 05:58:38;;;;;;;8.52;2.97;;;;;;;12.62;56.48;101966.94;3616405;39;20089;-65
2023/06/02 06:01:04;;;;;;;9.90;2.65;;;;;;;12.66;56.11;101965.88;3617699;39;20316;-65
2023/06/02 06:03:30;;;;;;;11.85;2.65;;;;;;;12.65;56.30;101966.78;3615356;39;20142;-65
2023/06/02 06:05:55;;;;;;;7.60;2.90;;;;;;;12.70;56.30;101964.75;3615315;39;20369;-64
2023/06/02 06:08:21;;;;;;;9.88;3.00;;;;;;;12.43;56.23;101917.63;3607471;39;20123;-64
2023/06/02 06:10:47;;;;;;;7.97;2.95;;;;;;;12.76;56.09;101963.56;3619136;39;20088;-64
2023/06/02 06:13:12;;;;;;;10.57;3.10;;;;;;;12.76;56.20;101948.22;3617342;39;20421;-64
2023/06/02 06:15:38;;;;;;;13.65;2.95;;;;;;;12.86;55.94;101963.94;3618365;39;20058;-64
2023/06/02 06:18:04;;;;;;;11.82;2.92;;;;;;;12.93;55.48;101962.66;3619019;39;20042;-64
2023/06/02 06:20:30;;;;;;;14.15;3.25;;;;;;;13.00;56.05;101961.34;3618654;39;20057;-63
2023/06/02 06:22:56;;;;;;;11.40;3.22;;;;;;;13.05;55.19;101963.81;3616115;39;20416;-64
2023/06/02 06:25:21;;;;;;;11.90;2.88;;;;;;;13.03;53.70;101961.19;3613272;39;20140;-65
2023/06/02 06:27:47;;;;;;;10.80;2.97;;;;;;;13.05;55.25;101958.44;3615996;39;20058;-65
2023/06/02 06:30:13;;;;;;;12.73;2.92;;;;;;;13.06;53.75;101965.56;3614427;39;20058;-64
2023/06/02 06:32:38;;;;;;;11.05;2.75;;;;;;;13.05;54.32;101959.28;3618037;39;20377;-65
2023/06/02 06:35:05;;;;;;;8.13;2.42;;;;;;;12.86;53.67;101934.25;3616286;39;20062;-65
2023/06/02 06:37:31;;;;;;;10.43;2.85;;;;;;;13.02;54.41;101967.56;3616671;39;20057;-64
2023/06/02 06:39:56;;;;;;;7.70;2.85;;;;;;;12.99;54.31;101965.88;3615132;39;20474;-65
2023/06/02 06:42:22;;;;;;;13.18;3.20;;;;;;;13.03;54.35;101971.97;3615631;39;20392;-64
2023/06/02 06:44:50;;;;;;;9.50;3.50;;;;;;;13.10;55.26;101962.63;3619380;39;20049;-65
2023/06/02 06:47:16;;;;;;;10.25;2.78;;;;;;;13.14;54.08;101966.91;3620766;39;20377;-64
2023/06/02 06:49:42;;;;;;;9.60;3.05;;;;;;;13.20;54.36;101963.00;3619501;39;20050;-64
2023/06/02 06:52:07;;;;;;;13.80;2.83;;;;;;;13.19;54.00;101959.44;3612535;39;20495;-64
2023/06/02 06:54:33;;;;;;;11.65;2.92;;;;;;;13.16;54.65;101967.69;3620019;39;20066;-64
2023/06/02 06:56:59;;;;;;;8.98;2.45;;;;;;;13.11;54.12;101950.84;3615964;39;20053;-65
2023/06/02 06:59:24;;;;;;;11.57;2.63;;;;;;;13.19;54.98;101964.84;3616367;39;20054;-63
2023/06/02 07:01:50;;;;;;;8.05;2.63;;;;;;;13.25;54.50;101960.94;3608094;39;20043;-64
2023/06/02 07:04:16;;;;;;;11.32;3.00;;;;;;;13.30;54.29;101963.41;3615600;39;20054;-64
2023/06/02 07:06:42;;;;;;;9.02;2.63;;;;;;;13.27;53.69;101971.66;3617951;39;20066;-64
2023/06/02 07:09:08;;;;;;;13.35;2.97;;;;;;;13.26;53.73;101965.41;3615390;39;20354;-64
2023/06/02 07:11:34;;;;;;;13.35;2.83;;;;;;;13.29;54.17;101965.22;3616536;39;20054;-64
2023/06/02 07:14:00;;;;;;;12.60;3.03;;;;;;;13.38;53.98;101959.31;3616715;39;20501;-64
2023/06/02 07:16:25;;;;;;;10.77;2.92;;;;;;;13.45;53.19;101957.16;3615912;39;20055;-64
2023/06/02 07:18:51;;;;;;;9.43;2.83;;;;;;;13.45;53.78;101962.56;3616343;39;20061;-64
2023/06/02 07:21:16;;;;;;;9.60;3.03;;;;;;;13.43;53.40;101964.44;3618765;39;20124;-64
2023/06/02 07:23:42;;;;;;;15.30;3.55;;;;;;;13.23;53.03;101925.03;3618267;39;20047;-65
2023/06/02 07:26:08;;;;;;;12.48;3.20;;;;;;;13.55;54.18;101969.19;3613880;39;20047;-63
2023/06/02 07:28:33;;;;;;;12.35;3.55;;;;;;;13.59;53.18;101975.28;3617326;39;20066;-64
2023/06/02 07:30:59;;;;;;;9.40;2.60;;;;;;;13.60;53.50;101977.88;3615769;39;20054;-65
2023/06/02 07:33:24;;;;;;;10.68;2.80;;;;;;;13.55;53.32;101962.91;3614447;39;20053;-65
2023/06/02 07:35:50;;;;;;;9.13;2.88;;;;;;;13.69;52.28;101988.16;3616186;39;20097;-64
2023/06/02 07:38:16;;;;;;;9.68;3.00;;;;;;;13.76;52.76;101985.13;3616343;39;20086;-64
2023/06/02 07:40:41;;;;;;;10.75;2.70;;;;;;;13.77;52.89;101979.66;3619004;39;20087;-64
2023/06/02 07:43:07;;;;;;;9.73;2.97;;;;;;;13.87;52.70;101986.25;3618532;39;20055;-65
2023/06/02 07:45:32;;;;;;;10.00;2.97;;;;;;;14.00;53.23;101974.75;3618716;39;20066;-64
2023/06/02 07:47:58;;;;;;;13.20;3.42;;;;;;;14.04;51.54;101969.06;3616713;39;20054;-65
2023/06/02 07:50:24;;;;;;;14.25;3.28;;;;;;;14.11;52.93;101973.19;3615922;39;20102;-64
2023/06/02 07:52:49;;;;;;;10.77;3.08;;;;;;;14.20;51.63;101977.16;3619374;39;20392;-64
2023/06/02 07:55:15;;;;;;;11.88;2.97;;;;;;;14.30;52.83;101972.06;3606602;39;20062;-65
2023/06/02 07:57:41;;;;;;;10.73;3.10;;;;;;;14.39;52.15;101971.53;3614181;39;20049;-65
2023/06/02 08:00:19;;;;;;;11.15;3.13;;;;;;;14.37;50.71;101968.06;3614515;39;20106;-64
2023/06/02 08:02:49;;;;;;;13.63;3.90;;;;;;;14.46;51.18;101963.91;3613580;39;20528;-65
2023/06/02 08:05:16;;;;;;;11.13;3.05;;;;;;;14.51;50.20;101970.81;3611032;39;20801;-65
2023/06/02 08:07:43;;;;;;;13.98;3.75;;;;;;;14.36;52.01;101926.59;3617707;39;20055;-64
2023/06/02 08:10:10;;;;;;;12.68;3.10;;;;;;;14.65;50.74;101953.75;3611510;39;20584;-65
2023/06/02 08:12:36;;;;;;;9.55;2.92;;;;;;;14.79;50.19;101971.88;3615312;39;20058;-65
2023/06/02 08:15:03;;;;;;;9.02;2.53;;;;;;;14.57;49.99;101927.16;3615559;39;20050;-65
2023/06/02 08:17:29;;;;;;;8.25;2.58;;;;;;;14.86;50.50;101965.09;3607115;39;20043;-65
2023/06/02 08:20:00;;;;;;;10.02;2.95;;;;;;;14.97;50.30;101962.63;3617516;39;20407;-64
2023/06/02 08:22:28;;;;;;;8.75;2.70;;;;;;;14.98;49.61;101969.75;3614563;39;20043;-64
2023/06/02 08:24:55;;;;;;;12.32;3.05;;;;;;;14.94;49.68;101968.22;3616864;39;20039;-63
2023/06/02 08:27:21;;;;;;;8.63;2.67;;;;;;;14.99;48.50;101971.50;3608380;39;21033;-65
2023/06/02 08:29:51;;;;;;;11.20;3.05;;;;;;;15.05;50.16;101968.41;3616422;39;20047;-65
2023/06/02 08:32:18;;;;;;;10.07;3.35;;;;;;;15.18;49.11;101975.78;3608548;39;20185;-65
2023/06/02 08:34:56;;;;;;;13.23;3.45;;;;;;;15.19;48.28;101969.38;3614514;39;20104;-64
2023/06/02 08:37:22;;;;;;;8.00;2.90;;;;;;;15.28;50.09;101972.38;3616115;39;20055;-66
2023/06/02 08:39:50;;;;;;;8.90;2.83;;;;;;;15.33;49.36;101969.38;3613425;39;20289;-63
2023/06/02 08:42:17;;;;;;;8.10;2.90;;;;;;;15.32;47.20;101968.53;3613951;39;20046;-64
2023/06/02 08:44:44;;;;;;;11.07;3.17;;;;;;;15.29;47.85;101978.69;3609254;39;20054;-65
2023/06/02 08:47:12;;;;;;;7.93;3.05;;;;;;;15.26;48.18;101974.31;3616997;39;20131;-63
2023/06/02 08:49:45;;;;;;;10.63;3.25;;;;;;;15.19;47.68;101967.56;3614407;39;20489;-64
2023/06/02 08:52:22;;;;;;;10.55;3.05;;;;;;;15.21;48.50;101972.88;3617049;39;20062;-65
2023/06/02 08:54:49;;;;;;;9.50;2.78;;;;;;;15.31;48.36;101965.91;3613939;39;20051;-64
2023/06/02 08:57:16;;;;;;;12.57;3.00;;;;;;;15.39;47.80;101974.41;3614693;39;20407;-63
2023/06/02 08:59:46;;;;;;;7.53;2.30;;;;;;;15.49;47.94;101967.44;3605552;39;20182;-65
2023/06/02 09:02:14;;;;;;;11.52;3.65;;;;;;;15.63;48.06;101954.81;3613990;39;20057;-64
2023/06/02 09:04:39;;;;;;;10.18;3.15;;;;;;;15.92;47.43;101966.50;3614962;39;20358;-64
2023/06/02 09:07:18;;;;;;;9.55;3.00;;;;;;;15.99;46.28;101963.28;3616936;39;20054;-65
2023/06/02 09:09:51;;;;;;;6.47;2.72;;;;;;;16.13;47.03;101954.22;3612770;39;20066;-64
2023/06/02 09:12:18;;;;;;;6.47;2.53;;;;;;;16.36;46.62;101966.22;3606931;39;20059;-65
2023/06/02 09:14:47;;;;;;;7.28;3.10;;;;;;;16.38;45.07;101958.84;3617926;39;20074;-64
2023/06/02 09:17:30;;;;;;;8.52;3.10;;;;;;;16.44;45.34;101952.16;3616525;39;20058;-65
2023/06/02 09:20:07;;;;;;;10.07;3.20;;;;;;;16.47;45.92;101958.22;3614608;39;20158;-64
2023/06/02 09:22:33;;;;;;;8.43;2.95;;;;;;;16.57;44.54;101965.75;3609740;39;20061;-63
2023/06/02 09:24:58;;;;;;;10.25;3.33;;;;;;;16.75;46.20;101955.47;3614229;39;20122;-64
2023/06/02 09:27:25;;;;;;;10.50;2.80;;;;;;;17.03;46.76;101954.41;3613656;39;20078;-63
2023/06/02 09:30:02;;;;;;;8.60;2.83;;;;;;;17.28;45.90;101951.66;3613356;39;20119;-64
2023/06/02 09:32:28;;;;;;;9.35;3.17;;;;;;;17.38;43.54;101951.88;3613859;39;20326;-64
2023/06/02 09:34:54;;;;;;;9.93;2.90;;;;;;;17.43;44.20;101946.09;3614300;39;20058;-64
2023/06/02 09:37:20;;;;;;;12.65;3.13;;;;;;;17.57;44.70;101935.06;3613979;39;20051;-64
2023/06/02 09:39:52;;;;;;;8.65;3.13;;;;;;;17.87;45.97;101948.28;3614430;39;20393;-64
2023/06/02 09:42:21;;;;;;;8.77;2.95;;;;;;;18.26;43.49;101941.66;3615660;39;20067;-63
2023/06/02 09:45:08;;;;;;;9.23;2.92;;;;;;;18.83;41.84;101956.34;3613583;39;20125;-64
2023/06/02 09:47:41;;;;;;;12.25;3.53;;;;;;;19.37;42.00;101949.34;3613382;39;20142;-65
2023/06/02 09:50:09;;;;;;;10.50;3.30;;;;;;;19.78;41.78;101947.84;3614864;39;20405;-65
2023/06/02 09:52:36;;;;;;;10.23;3.30;;;;;;;19.94;40.66;101943.69;3615388;39;20055;-64
2023/06/02 09:55:02;;;;;;;9.73;3.42;;;;;;;20.10;38.62;101943.28;3614599;39;20054;-64
2023/06/02 09:57:30;;;;;;;8.35;3.50;;;;;;;19.85;37.43;101940.88;3615859;39;20472;-65
2023/06/02 09:59:58;;;;;;;9.88;3.05;;;;;;;19.66;39.12;101939.69;3616757;39;20047;-64
2023/06/02 10:02:24;;;;;;;8.63;3.08;;;;;;;19.53;39.80;101933.44;3617499;39;20061;-63
2023/06/02 10:04:50;;;;;;;12.25;3.30;;;;;;;19.38;39.48;101943.78;3618617;39;20058;-65
2023/06/02 10:07:46;;;;;;;7.82;2.85;;;;;;;19.16;40.73;101941.91;3618502;39;20377;-65
2023/06/02 10:10:49;;;;;;;9.52;3.00;;;;;;;18.97;42.86;101934.34;3615636;39;20136;-65
2023/06/02 10:13:57;;;;;;;7.03;3.08;;;;;;;19.12;40.46;101918.59;3609341;39;20401;-65
2023/06/02 10:16:56;;;;;;;9.20;3.03;;;;;;;19.61;40.18;101935.56;3615714;39;20115;-64
2023/06/02 10:19:51;;;;;;;8.73;3.03;;;;;;;19.43;42.19;101842.50;3616949;39;20050;-64
2023/06/02 10:23:04;;;;;;;10.35;3.40;;;;;;;20.39;40.61;101943.53;3612629;39;20047;-64
2023/06/02 10:25:33;;;;;;;9.93;2.95;;;;;;;20.70;40.29;101943.63;3606559;39;20111;-64
2023/06/02 10:28:03;;;;;;;11.68;2.92;;;;;;;21.00;37.33;101937.38;3612532;39;20160;-65
2023/06/02 10:30:29;;;;;;;7.72;3.17;;;;;;;20.99;38.65;101935.59;3613157;39;20042;-64
2023/06/02 10:32:55;;;;;;;9.93;2.78;;;;;;;21.19;38.27;101933.00;3613966;39;20385;-64
2023/06/02 10:35:21;;;;;;;10.85;3.25;;;;;;;20.82;37.89;101895.25;3612791;39;20053;-64
2023/06/02 10:38:25;;;;;;;7.60;3.10;;;;;;;20.84;39.91;101939.72;3614680;39;20055;-64
2023/06/02 10:40:52;;;;;;;9.55;3.25;;;;;;;20.83;39.26;101940.69;3614452;39;20042;-65
2023/06/02 10:43:17;;;;;;;8.88;3.15;;;;;;;20.59;37.79;101933.66;3615549;39;20413;-64
2023/06/02 10:45:44;;;;;;;9.55;3.45;;;;;;;20.22;39.31;101929.59;3613857;39;20093;-65
2023/06/02 10:48:38;;;;;;;12.45;3.40;;;;;;;20.45;40.46;101928.47;3614156;39;20039;-65
2023/06/02 10:51:09;;;;;;;10.70;3.13;;;;;;;20.58;39.81;101929.19;3617843;39;20061;-64
2023/06/02 10:54:02;;;;;;;8.55;2.80;;;;;;;20.46;40.10;101938.41;3614009;39;20079;-64
2023/06/02 10:56:39;;;;;;;11.43;3.40;;;;;;;20.20;41.14;101931.56;3614692;39;20469;-64
2023/06/02 10:59:06;;;;;;;9.35;3.20;;;;;;;20.10;41.41;101937.81;3614976;39;20320;-64
2023/06/02 11:01:51;;;;;;;9.45;3.50;;;;;;;20.42;40.98;101931.47;3613387;39;20088;-64
2023/06/02 11:04:33;;;;;;;8.55;3.28;;;;;;;20.97;41.36;101928.56;3614666;39;20039;-65
2023/06/02 11:07:18;;;;;;;10.63;3.47;;;;;;;21.33;39.79;101929.88;3616766;39;20401;-64
2023/06/02 11:09:47;;;;;;;10.55;2.88;;;;;;;21.31;39.97;101920.94;3615367;39;20047;-64
2023/06/02 11:12:13;;;;;;;6.28;3.30;;;;;;;21.33;38.92;101911.59;3619763;39;20043;-64
2023/06/02 11:15:01;;;;;;;7.15;2.88;;;;;;;21.16;40.42;101922.34;3619000;39;20050;-65
2023/06/02 11:17:34;;;;;;;9.38;3.40;;;;;;;21.28;39.10;101918.47;3617212;39;20407;-65
2023/06/02 11:20:04;;;;;;;9.88;3.58;;;;;;;21.42;39.43;101909.06;3616766;39;20058;-64
2023/06/02 11:22:31;;;;;;;9.02;3.47;;;;;;;21.79;40.02;101914.78;3616836;39;20042;-65
2023/06/02 11:25:01;;;;;;;8.80;3.00;;;;;;;22.05;37.57;101917.84;3617334;39;20047;-65
2023/06/02 11:27:47;;;;;;;9.68;2.85;;;;;;;22.27;39.42;101913.97;3618034;39;20057;-65